メインページ
METAR-TAF:

METAR-TAF

空港 :

香港, 中華人民共和国

香港国際空港

緯度: 22-19N, 経度: 113-55E, 海抜: 9m

現時点の気象観測

当レポートは34分前の20:30(UTC)に作成
の風 16kt
気温 22°C
湿度 88%
気圧 1017 hPa
視程: 7000m
高度1200ftの雲はほとんどない
高度2500ftの雲は散在している

METAR: VHHH 292030Z 10016KT 7000 FEW012 SCT025 22/20 Q1017 NOSIG

時間: 05:04 (21:04 UTC)

予報

当レポートは4時間4分前の17:00(UTC)に作成
予報は29日の 18時(UTC)から 30日の 24時(UTC)まで有効
東/南東の風 10kt
視程: 7000m
高度2000ftの雲はほとんどない
高度3500ftの雲は散在している
30日の 20時(UTC)から 30日の 24時(UTC)まで一時的に
変向風 5kt
視程: 2500m
靄, 小雨

TAF: VHHH 291700Z 2918/3024 11010KT 7000 FEW020 SCT035 TX27/3006Z TN22/2923Z TN21/3023Z TEMPO 3020/3024 VRB05KT 2500 BR -RA

4,000以上の空港の気象観測と天気予報(METAR報とTAF報)

利用可能な観測所は地図上に黄色い丸と赤い丸で示す。

丸の上にカーソルを重ねると観測所名を参照できる。

次にクリックすると気象観測と天気予報を参照できる。

マップの切り替え:黒色「×」印の緑ボタンをクリックして拡大、「-」印の緑ボタンをクリックして縮小、緑色の三角印をクリックして隣りの地図に切り替え


METAR-TAF: